Time;durP1;ratioP1;P1;durP2;ratioP2;P2;SDS_P1;SDS_P2;PMS_P1;PMS_P2;Temp;Humidity;BMP_temperature;BMP_pressure;BME280_temperature;BME280_humidity;BME280_pressure;Samples;Min_cycle;Max_cycle;Signal;HPM_P1;HPM_P2
2020/12/07 00:01:22;;;;;;;;;;;20.50;34.30;;;;;;491590;240;979;-77
2020/12/07 00:03:23;;;;;;;;;;;20.60;34.30;;;;;;491667;240;2180;-77
2020/12/07 00:05:25;;;;;;;;;;;20.50;34.20;;;;;;491630;240;1065;-77
2020/12/07 00:07:26;;;;;;;;;;;20.50;34.30;;;;;;491663;240;1294;-77
2020/12/07 00:09:27;;;;;;;;;;;20.50;34.20;;;;;;491683;240;1057;-77
2020/12/07 00:11:28;;;;;;;;;;;20.50;34.30;;;;;;491737;240;1186;-77
2020/12/07 00:13:30;;;;;;;;;;;20.40;34.30;;;;;;491722;240;1074;-77
2020/12/07 00:15:31;;;;;;;;;;;20.40;34.30;;;;;;491659;240;975;-77
2020/12/07 00:17:32;;;;;;;;;;;20.40;34.40;;;;;;491699;239;1184;-77
2020/12/07 00:19:34;;;;;;;;;;;20.40;34.30;;;;;;491666;240;1084;-77
2020/12/07 00:21:35;;;;;;;;;;;20.50;34.30;;;;;;491674;240;1168;-77
2020/12/07 00:23:36;;;;;;;;;;;20.40;34.40;;;;;;491642;240;2185;-77
2020/12/07 00:25:38;;;;;;;;;;;20.50;34.30;;;;;;491761;240;1183;-77
2020/12/07 00:27:39;;;;;;;;;;;20.50;34.20;;;;;;491659;240;1220;-78
2020/12/07 00:29:40;;;;;;;;;;;20.50;34.10;;;;;;491663;240;1110;-77
2020/12/07 00:31:41;;;;;;;;;;;20.50;34.10;;;;;;491678;240;1158;-78
2020/12/07 00:33:43;;;;;;;;;;;20.50;34.20;;;;;;491711;240;943;-77
2020/12/07 00:35:44;;;;;;;;;;;20.50;34.10;;;;;;491705;240;1185;-77
2020/12/07 00:37:45;;;;;;;;;;;20.50;34.20;;;;;;491622;240;1128;-77
2020/12/07 00:39:46;;;;;;;;;;;20.50;34.10;;;;;;491662;240;1166;-77
2020/12/07 00:41:48;;;;;;;;;;;20.40;34.10;;;;;;491626;240;1090;-77
2020/12/07 00:43:49;;;;;;;;;;;20.50;34.10;;;;;;491441;241;2179;-77
2020/12/07 00:45:50;;;;;;;;;;;20.50;34.00;;;;;;491685;240;1202;-77
2020/12/07 00:47:52;;;;;;;;;;;20.50;34.00;;;;;;491671;240;1074;-77
2020/12/07 00:49:53;;;;;;;;;;;20.50;33.90;;;;;;491694;240;1097;-77
2020/12/07 00:51:54;;;;;;;;;;;20.50;34.00;;;;;;491758;240;1111;-78
2020/12/07 00:53:55;;;;;;;;;;;20.50;34.00;;;;;;491764;240;1118;-78
2020/12/07 00:55:57;;;;;;;;;;;20.40;34.00;;;;;;491739;240;1710;-77
2020/12/07 00:57:58;;;;;;;;;;;20.50;33.90;;;;;;491736;240;1208;-77
2020/12/07 00:59:59;;;;;;;;;;;20.50;33.80;;;;;;491675;240;1143;-77
2020/12/07 01:02:01;;;;;;;;;;;20.60;33.80;;;;;;491706;240;1065;-77
2020/12/07 01:04:02;;;;;;;;;;;20.60;33.70;;;;;;491661;240;2188;-77
2020/12/07 01:06:03;;;;;;;;;;;20.50;33.70;;;;;;491696;240;1127;-77
2020/12/07 01:08:04;;;;;;;;;;;20.50;33.80;;;;;;491630;240;973;-77
2020/12/07 01:10:06;;;;;;;;;;;20.50;33.80;;;;;;491680;240;1146;-77
2020/12/07 01:12:07;;;;;;;;;;;20.50;33.80;;;;;;491688;240;1146;-77
2020/12/07 01:14:08;;;;;;;;;;;20.60;33.70;;;;;;491655;240;1242;-77
2020/12/07 01:16:11;;;;;;;;;;;20.50;33.70;;;;;;491698;240;1212;-77
2020/12/07 01:18:12;;;;;;;;;;;20.40;33.80;;;;;;491680;240;1024;-77
2020/12/07 01:20:13;;;;;;;;;;;20.40;33.80;;;;;;491745;240;1230;-77
2020/12/07 01:22:15;;;;;;;;;;;20.50;33.90;;;;;;491718;240;1116;-77
2020/12/07 01:24:16;;;;;;;;;;;20.50;33.90;;;;;;491678;240;2189;-77
2020/12/07 01:26:17;;;;;;;;;;;20.50;33.80;;;;;;491686;240;1329;-77
2020/12/07 01:28:19;;;;;;;;;;;20.40;34.00;;;;;;491647;240;934;-77
2020/12/07 01:30:20;;;;;;;;;;;20.50;33.90;;;;;;491666;240;1212;-77
2020/12/07 01:32:21;;;;;;;;;;;20.50;35.60;;;;;;491866;240;1151;-77
2020/12/07 01:34:22;;;;;;;;;;;20.50;35.80;;;;;;491732;240;1065;-77
2020/12/07 01:36:24;;;;;;;;;;;20.50;35.70;;;;;;491723;240;1229;-77
2020/12/07 01:38:25;;;;;;;;;;;20.50;35.80;;;;;;491675;240;1063;-77
2020/12/07 01:40:26;;;;;;;;;;;20.50;35.70;;;;;;491646;240;1214;-77
2020/12/07 01:42:28;;;;;;;;;;;20.50;35.80;;;;;;491789;240;1187;-77
2020/12/07 01:44:31;;;;;;;;;;;20.50;35.70;;;;;;491702;240;2183;-77
2020/12/07 01:46:32;;;;;;;;;;;20.50;35.80;;;;;;491640;240;1558;-77
2020/12/07 01:48:33;;;;;;;;;;;20.50;35.80;;;;;;491636;240;1073;-77
2020/12/07 01:50:35;;;;;;;;;;;20.50;35.80;;;;;;491657;240;947;-77
2020/12/07 01:52:36;;;;;;;;;;;20.40;35.80;;;;;;491642;240;1130;-77
2020/12/07 01:54:37;;;;;;;;;;;20.50;35.80;;;;;;491684;240;1066;-77
2020/12/07 01:56:39;;;;;;;;;;;20.50;35.70;;;;;;491653;240;1294;-77
2020/12/07 01:58:40;;;;;;;;;;;20.50;35.60;;;;;;491709;240;1281;-77
2020/12/07 02:00:42;;;;;;;;;;;20.50;35.60;;;;;;491656;240;1342;-78
2020/12/07 02:02:43;;;;;;;;;;;20.50;35.50;;;;;;491615;240;1137;-77
2020/12/07 02:04:44;;;;;;;;;;;20.40;35.40;;;;;;491671;240;2175;-77
2020/12/07 02:06:46;;;;;;;;;;;20.50;35.40;;;;;;491675;240;1307;-77
2020/12/07 02:08:47;;;;;;;;;;;20.50;35.30;;;;;;491761;240;1283;-77
2020/12/07 02:10:48;;;;;;;;;;;20.50;35.20;;;;;;491668;240;1191;-77
2020/12/07 02:12:49;;;;;;;;;;;20.50;35.10;;;;;;491594;240;1248;-77
2020/12/07 02:14:51;;;;;;;;;;;20.50;35.10;;;;;;491736;240;948;-77
2020/12/07 02:16:52;;;;;;;;;;;20.60;35.00;;;;;;491699;240;1218;-78
2020/12/07 02:18:53;;;;;;;;;;;20.60;34.80;;;;;;491637;240;1111;-77
2020/12/07 02:20:54;;;;;;;;;;;20.50;34.90;;;;;;491620;240;974;-77
2020/12/07 02:22:56;;;;;;;;;;;20.60;34.90;;;;;;491665;240;1177;-78
2020/12/07 02:24:57;;;;;;;;;;;20.50;34.90;;;;;;491682;240;2167;-78
2020/12/07 02:26:58;;;;;;;;;;;20.50;35.00;;;;;;491605;240;1299;-77
2020/12/07 02:29:00;;;;;;;;;;;20.40;35.00;;;;;;491649;240;995;-78
2020/12/07 02:31:01;;;;;;;;;;;20.40;35.00;;;;;;491633;240;1267;-77
2020/12/07 02:33:02;;;;;;;;;;;20.40;34.90;;;;;;491666;240;1233;-77
2020/12/07 02:35:04;;;;;;;;;;;20.50;34.90;;;;;;491651;240;1236;-77
2020/12/07 02:37:05;;;;;;;;;;;20.50;34.80;;;;;;491730;240;1082;-77
2020/12/07 02:39:06;;;;;;;;;;;20.50;34.90;;;;;;491665;240;1038;-77
2020/12/07 02:41:08;;;;;;;;;;;20.40;34.80;;;;;;491654;240;1185;-77
2020/12/07 02:43:09;;;;;;;;;;;20.40;34.90;;;;;;491664;240;1123;-77
2020/12/07 02:45:10;;;;;;;;;;;20.30;34.90;;;;;;491614;240;2188;-77
2020/12/07 02:47:11;;;;;;;;;;;20.30;35.00;;;;;;491645;240;1204;-77
2020/12/07 02:49:14;;;;;;;;;;;20.30;34.90;;;;;;491682;240;1097;-77
2020/12/07 02:51:16;;;;;;;;;;;20.30;35.00;;;;;;491657;240;1284;-77
2020/12/07 02:53:17;;;;;;;;;;;20.30;34.90;;;;;;491724;240;1504;-77
2020/12/07 02:55:18;;;;;;;;;;;20.30;34.80;;;;;;491730;240;1233;-78
2020/12/07 02:57:20;;;;;;;;;;;20.30;34.80;;;;;;491656;240;1419;-77
2020/12/07 02:59:21;;;;;;;;;;;20.30;34.90;;;;;;491615;240;1035;-77
2020/12/07 03:01:22;;;;;;;;;;;20.30;34.80;;;;;;491646;240;1274;-77
2020/12/07 03:03:24;;;;;;;;;;;20.30;34.90;;;;;;491646;240;1025;-77
2020/12/07 03:05:25;;;;;;;;;;;20.20;34.80;;;;;;491663;240;2192;-77
2020/12/07 03:07:26;;;;;;;;;;;20.20;34.80;;;;;;491655;240;1305;-77
2020/12/07 03:09:27;;;;;;;;;;;20.20;34.80;;;;;;491626;240;1154;-77
2020/12/07 03:11:29;;;;;;;;;;;20.20;34.80;;;;;;491557;240;1220;-77
2020/12/07 03:13:32;;;;;;;;;;;20.20;34.80;;;;;;491625;240;1188;-77
2020/12/07 03:15:34;;;;;;;;;;;20.10;34.70;;;;;;491694;240;1206;-77
2020/12/07 03:17:35;;;;;;;;;;;20.10;34.80;;;;;;491732;240;1382;-77
2020/12/07 03:19:37;;;;;;;;;;;20.10;34.70;;;;;;491640;240;1287;-77
2020/12/07 03:21:38;;;;;;;;;;;20.10;34.70;;;;;;491666;240;1238;-78
2020/12/07 03:23:39;;;;;;;;;;;20.20;34.70;;;;;;491603;240;2195;-78
2020/12/07 03:25:40;;;;;;;;;;;20.10;34.60;;;;;;491690;240;1243;-77
2020/12/07 03:27:42;;;;;;;;;;;20.10;34.50;;;;;;491654;240;1216;-77
2020/12/07 03:29:43;;;;;;;;;;;20.10;34.60;;;;;;491637;240;1205;-77
2020/12/07 03:31:44;;;;;;;;;;;20.10;34.60;;;;;;491548;240;1126;-78
2020/12/07 03:33:45;;;;;;;;;;;20.10;34.60;;;;;;491625;240;978;-77
2020/12/07 03:35:47;;;;;;;;;;;20.10;34.60;;;;;;491628;240;971;-77
2020/12/07 03:37:48;;;;;;;;;;;20.10;34.60;;;;;;491627;240;964;-77
2020/12/07 03:39:49;;;;;;;;;;;20.10;35.20;;;;;;491660;240;1021;-77
2020/12/07 03:41:51;;;;;;;;;;;20.10;35.50;;;;;;491679;240;957;-77
2020/12/07 03:43:52;;;;;;;;;;;20.20;35.50;;;;;;491649;240;2180;-78
2020/12/07 03:45:53;;;;;;;;;;;20.20;35.50;;;;;;491626;240;932;-77
2020/12/07 03:47:54;;;;;;;;;;;20.20;35.50;;;;;;491568;240;956;-77
2020/12/07 03:49:56;;;;;;;;;;;20.20;35.60;;;;;;491614;240;1084;-77
2020/12/07 03:51:57;;;;;;;;;;;20.20;35.70;;;;;;491635;240;1240;-77
2020/12/07 03:53:58;;;;;;;;;;;20.20;35.60;;;;;;491685;240;963;-77
2020/12/07 03:56:00;;;;;;;;;;;20.20;35.70;;;;;;491649;240;1132;-77
2020/12/07 03:58:01;;;;;;;;;;;20.20;35.80;;;;;;491677;240;1197;-77
2020/12/07 04:00:02;;;;;;;;;;;20.20;35.80;;;;;;491610;240;1187;-77
2020/12/07 04:02:04;;;;;;;;;;;20.20;35.70;;;;;;491589;240;1055;-77
2020/12/07 04:04:08;;;;;;;;;;;20.20;35.80;;;;;;491625;240;2183;-77
2020/12/07 04:06:10;;;;;;;;;;;20.20;35.80;;;;;;491674;240;2243;-77
2020/12/07 04:08:09;;;;;;;;;;;20.20;35.80;;;;;;491650;240;2217;-77
2020/12/07 04:10:10;;;;;;;;;;;20.20;35.80;;;;;;491566;240;1303;-77
2020/12/07 04:12:11;;;;;;;;;;;20.20;35.80;;;;;;491581;240;1196;-77
2020/12/07 04:14:12;;;;;;;;;;;20.20;35.90;;;;;;491799;240;1181;-77
2020/12/07 04:16:13;;;;;;;;;;;20.20;35.80;;;;;;491713;240;955;-77
2020/12/07 04:18:15;;;;;;;;;;;20.20;35.80;;;;;;491680;240;1109;-77
2020/12/07 04:20:16;;;;;;;;;;;20.10;35.70;;;;;;491638;240;939;-77
2020/12/07 04:22:17;;;;;;;;;;;20.20;35.70;;;;;;491632;240;1255;-77
2020/12/07 04:24:18;;;;;;;;;;;20.30;35.60;;;;;;491590;240;2188;-77
2020/12/07 04:26:20;;;;;;;;;;;20.20;35.50;;;;;;491562;240;1093;-77
2020/12/07 04:28:21;;;;;;;;;;;20.30;35.50;;;;;;491675;240;1305;-77
2020/12/07 04:30:22;;;;;;;;;;;20.30;35.40;;;;;;491604;240;1189;-77
2020/12/07 04:32:24;;;;;;;;;;;20.30;35.40;;;;;;491611;240;1208;-77
2020/12/07 04:34:25;;;;;;;;;;;20.30;35.30;;;;;;491620;240;1220;-77
2020/12/07 04:36:27;;;;;;;;;;;20.30;35.30;;;;;;491624;240;1147;-77
2020/12/07 04:38:27;;;;;;;;;;;20.30;35.30;;;;;;491621;240;1061;-77
2020/12/07 04:40:29;;;;;;;;;;;20.30;35.30;;;;;;491648;240;1315;-77
2020/12/07 04:42:30;;;;;;;;;;;20.20;35.20;;;;;;491646;240;1218;-77
2020/12/07 04:44:31;;;;;;;;;;;20.20;35.30;;;;;;491650;240;2195;-77
2020/12/07 04:46:33;;;;;;;;;;;20.30;35.20;;;;;;491607;240;1148;-77
2020/12/07 04:48:34;;;;;;;;;;;20.20;35.20;;;;;;491768;240;1119;-77
2020/12/07 04:50:35;;;;;;;;;;;20.20;35.10;;;;;;491670;240;1003;-77
2020/12/07 04:52:36;;;;;;;;;;;20.20;35.10;;;;;;491669;240;1136;-77
2020/12/07 04:54:38;;;;;;;;;;;20.20;35.10;;;;;;491881;240;1272;-77
2020/12/07 04:56:39;;;;;;;;;;;20.20;35.10;;;;;;491723;240;1328;-78
2020/12/07 04:58:40;;;;;;;;;;;20.20;35.10;;;;;;491647;240;1123;-77
2020/12/07 05:00:41;;;;;;;;;;;20.20;35.10;;;;;;491694;240;1091;-77
2020/12/07 05:02:43;;;;;;;;;;;20.20;35.10;;;;;;491635;240;1168;-77
2020/12/07 05:04:44;;;;;;;;;;;20.30;35.00;;;;;;491595;240;2187;-77
2020/12/07 05:06:46;;;;;;;;;;;20.20;35.00;;;;;;491626;240;1135;-77
2020/12/07 05:08:47;;;;;;;;;;;20.20;35.20;;;;;;491645;240;1084;-77
2020/12/07 05:10:49;;;;;;;;;;;20.20;35.10;;;;;;491654;240;1264;-77
2020/12/07 05:12:54;;;;;;;;;;;20.20;35.10;;;;;;491578;240;2029;-77
2020/12/07 05:14:51;;;;;;;;;;;20.20;35.10;;;;;;491790;240;2220;-77
2020/12/07 05:16:52;;;;;;;;;;;20.20;35.10;;;;;;491638;240;1214;-77
2020/12/07 05:18:53;;;;;;;;;;;20.20;35.10;;;;;;491736;240;1045;-77
2020/12/07 05:20:55;;;;;;;;;;;20.20;35.10;;;;;;491650;240;954;-77
2020/12/07 05:22:56;;;;;;;;;;;20.20;35.10;;;;;;491707;240;1190;-77
2020/12/07 05:24:57;;;;;;;;;;;20.30;35.10;;;;;;491675;240;2191;-77
2020/12/07 05:26:58;;;;;;;;;;;20.40;35.10;;;;;;491741;240;1185;-77
2020/12/07 05:29:04;;;;;;;;;;;20.40;35.10;;;;;;491553;240;1164;-77
2020/12/07 05:31:01;;;;;;;;;;;20.30;35.20;;;;;;491717;240;2085;-77
2020/12/07 05:33:02;;;;;;;;;;;20.40;35.10;;;;;;491678;240;1203;-77
2020/12/07 05:35:04;;;;;;;;;;;20.40;35.10;;;;;;491540;240;971;-77
2020/12/07 05:37:05;;;;;;;;;;;20.40;35.10;;;;;;491583;240;1112;-77
2020/12/07 05:39:06;;;;;;;;;;;20.40;35.20;;;;;;491513;240;1166;-77
2020/12/07 05:41:07;;;;;;;;;;;20.40;35.10;;;;;;491361;240;1106;-77
2020/12/07 05:43:09;;;;;;;;;;;20.40;35.10;;;;;;491479;240;1229;-77
2020/12/07 05:45:10;;;;;;;;;;;20.50;35.00;;;;;;491486;240;2176;-77
2020/12/07 05:47:11;;;;;;;;;;;20.50;35.00;;;;;;491543;240;1050;-78
2020/12/07 05:49:13;;;;;;;;;;;20.50;35.10;;;;;;491534;240;1186;-78
2020/12/07 05:51:14;;;;;;;;;;;20.50;35.00;;;;;;491478;240;1159;-78
2020/12/07 05:53:15;;;;;;;;;;;20.60;34.90;;;;;;491494;240;987;-78
2020/12/07 05:55:16;;;;;;;;;;;20.60;35.00;;;;;;491374;240;1110;-77
2020/12/07 05:57:18;;;;;;;;;;;20.50;35.00;;;;;;491443;240;1008;-77
2020/12/07 05:59:19;;;;;;;;;;;20.50;35.10;;;;;;491458;240;1297;-77
2020/12/07 06:01:21;;;;;;;;;;;20.50;35.10;;;;;;491448;240;977;-77
2020/12/07 06:03:22;;;;;;;;;;;20.40;35.00;;;;;;491489;240;1232;-77
2020/12/07 06:05:23;;;;;;;;;;;20.40;35.20;;;;;;491502;240;2179;-77
2020/12/07 06:07:24;;;;;;;;;;;20.40;35.20;;;;;;491296;240;1109;-77
2020/12/07 06:09:26;;;;;;;;;;;20.30;35.20;;;;;;491455;240;1264;-77
2020/12/07 06:11:27;;;;;;;;;;;20.40;35.10;;;;;;491492;240;1197;-78
2020/12/07 06:13:28;;;;;;;;;;;20.40;35.00;;;;;;491341;240;1124;-77
2020/12/07 06:15:29;;;;;;;;;;;20.30;34.90;;;;;;491450;240;1216;-77
2020/12/07 06:17:31;;;;;;;;;;;20.30;35.00;;;;;;491425;240;1238;-77
2020/12/07 06:19:32;;;;;;;;;;;20.30;35.10;;;;;;491491;240;975;-77
2020/12/07 06:21:33;;;;;;;;;;;20.30;35.20;;;;;;491446;240;1196;-77
2020/12/07 06:23:35;;;;;;;;;;;20.30;35.30;;;;;;491520;240;1119;-77
2020/12/07 06:25:36;;;;;;;;;;;20.30;35.20;;;;;;491476;240;2191;-77
2020/12/07 06:27:37;;;;;;;;;;;20.30;35.20;;;;;;491478;240;1021;-77
2020/12/07 06:29:39;;;;;;;;;;;20.20;35.20;;;;;;491452;240;1272;-78
2020/12/07 06:31:40;;;;;;;;;;;20.20;35.20;;;;;;491447;240;1056;-77
2020/12/07 06:33:41;;;;;;;;;;;20.20;35.20;;;;;;491484;240;955;-77
2020/12/07 06:35:42;;;;;;;;;;;20.30;35.10;;;;;;491443;240;998;-77
2020/12/07 06:37:44;;;;;;;;;;;20.30;35.20;;;;;;491402;240;1059;-77
2020/12/07 06:39:45;;;;;;;;;;;20.30;35.20;;;;;;491354;240;1062;-77
2020/12/07 06:41:46;;;;;;;;;;;20.20;35.20;;;;;;491327;240;1040;-77
2020/12/07 06:43:48;;;;;;;;;;;20.30;35.30;;;;;;491336;240;1059;-77
2020/12/07 06:45:49;;;;;;;;;;;20.20;35.40;;;;;;491347;240;2192;-78
2020/12/07 06:47:51;;;;;;;;;;;20.20;35.40;;;;;;491269;240;1118;-77
2020/12/07 06:49:54;;;;;;;;;;;20.20;35.30;;;;;;491346;240;2040;-77
2020/12/07 06:51:53;;;;;;;;;;;20.30;35.30;;;;;;491464;240;2158;-77
2020/12/07 06:53:57;;;;;;;;;;;20.30;35.30;;;;;;491282;240;956;-78
2020/12/07 06:55:56;;;;;;;;;;;20.20;35.40;;;;;;491442;240;2268;-77
2020/12/07 06:57:57;;;;;;;;;;;20.20;35.40;;;;;;491302;240;1075;-77
2020/12/07 07:00:00;;;;;;;;;;;20.20;35.40;;;;;;491300;240;1318;-77
2020/12/07 07:02:00;;;;;;;;;;;20.30;35.40;;;;;;491359;240;2126;-78
2020/12/07 07:04:01;;;;;;;;;;;20.20;35.50;;;;;;491316;240;1113;-78
2020/12/07 07:06:03;;;;;;;;;;;20.20;35.40;;;;;;491209;240;2175;-77
2020/12/07 07:08:05;;;;;;;;;;;20.20;35.60;;;;;;491290;240;1173;-78
2020/12/07 07:10:05;;;;;;;;;;;20.20;35.60;;;;;;491180;240;2168;-78
2020/12/07 07:12:06;;;;;;;;;;;20.20;35.60;;;;;;491268;240;1164;-78
2020/12/07 07:14:08;;;;;;;;;;;20.20;35.60;;;;;;491257;240;966;-78
2020/12/07 07:16:09;;;;;;;;;;;20.20;35.60;;;;;;491126;240;1217;-78
2020/12/07 07:18:10;;;;;;;;;;;20.20;35.50;;;;;;491134;240;1130;-78
2020/12/07 07:20:13;;;;;;;;;;;20.20;35.50;;;;;;491085;240;972;-77
2020/12/07 07:22:15;;;;;;;;;;;20.20;35.40;;;;;;490959;240;1052;-78
2020/12/07 07:24:16;;;;;;;;;;;20.20;35.30;;;;;;491088;240;1076;-78
2020/12/07 07:26:21;;;;;;;;;;;20.20;35.20;;;;;;490996;240;2419;-77
2020/12/07 07:28:19;;;;;;;;;;;20.20;35.30;;;;;;491130;240;2099;-78
2020/12/07 07:30:21;;;;;;;;;;;20.20;35.50;;;;;;491063;240;1117;-78
2020/12/07 07:32:22;;;;;;;;;;;20.20;35.60;;;;;;491112;240;1287;-78
2020/12/07 07:34:23;;;;;;;;;;;20.20;35.60;;;;;;491098;240;1044;-78
2020/12/07 07:36:25;;;;;;;;;;;20.20;35.50;;;;;;491007;240;1240;-78
2020/12/07 07:38:26;;;;;;;;;;;20.20;35.60;;;;;;491007;240;1027;-78
2020/12/07 07:40:27;;;;;;;;;;;20.20;35.60;;;;;;490985;240;989;-78
2020/12/07 07:42:29;;;;;;;;;;;20.20;35.50;;;;;;491171;240;1187;-78
2020/12/07 07:44:30;;;;;;;;;;;20.30;35.40;;;;;;491204;240;1196;-78
2020/12/07 07:46:33;;;;;;;;;;;20.20;35.30;;;;;;490765;240;2188;-78
2020/12/07 07:48:38;;;;;;;;;;;20.20;35.30;;;;;;490947;240;2093;-78
2020/12/07 07:50:55;;;;;;;;;;;20.20;35.40;;;;;;491100;240;1984;-78
2020/12/07 07:53:29;;;;;;;;;;;20.20;35.30;;;;;;491096;240;1974;-78
2020/12/07 07:58:24;;;;;;;;;;;20.20;35.30;;;;;;491031;240;1705;-78
2020/12/07 08:12:38;;;;;;;;;;;20.20;35.20;;;;;;490880;242;1062;-77
2020/12/07 08:16:36;;;;;;;;;;;20.20;35.30;;;;;;486081;243;1214;-77
2020/12/07 08:18:37;;;;;;;;;;;20.20;35.30;;;;;;490926;240;1171;-78
2020/12/07 08:20:39;;;;;;;;;;;20.30;35.10;;;;;;490929;240;1084;-77
2020/12/07 08:22:40;;;;;;;;;;;20.30;35.10;;;;;;491046;240;1963;-78
2020/12/07 08:24:41;;;;;;;;;;;20.20;34.90;;;;;;490960;240;1078;-77
2020/12/07 08:26:43;;;;;;;;;;;20.30;35.00;;;;;;490977;240;2184;-77
2020/12/07 08:28:48;;;;;;;;;;;20.30;35.00;;;;;;490874;240;1082;-78
2020/12/07 08:30:45;;;;;;;;;;;20.30;35.00;;;;;;491103;240;2169;-78
2020/12/07 08:32:46;;;;;;;;;;;20.30;35.00;;;;;;491026;240;1342;-78
2020/12/07 08:34:50;;;;;;;;;;;20.40;35.00;;;;;;490748;241;2408;-78
2020/12/07 08:36:54;;;;;;;;;;;20.40;34.90;;;;;;490795;240;2115;-78
2020/12/07 08:38:55;;;;;;;;;;;20.30;35.00;;;;;;490750;240;1272;-77
2020/12/07 08:40:56;;;;;;;;;;;20.30;35.00;;;;;;490933;242;1328;-77
2020/12/07 08:42:58;;;;;;;;;;;20.40;35.10;;;;;;490982;240;1142;-78
2020/12/07 08:44:59;;;;;;;;;;;20.30;35.20;;;;;;490987;240;982;-77
2020/12/07 08:47:00;;;;;;;;;;;20.30;35.20;;;;;;491153;240;2189;-77
2020/12/07 08:49:01;;;;;;;;;;;20.40;35.20;;;;;;490967;240;1134;-77
2020/12/07 08:51:03;;;;;;;;;;;20.40;35.30;;;;;;490901;240;1142;-78
2020/12/07 08:53:04;;;;;;;;;;;20.40;35.30;;;;;;490629;240;1043;-78
2020/12/07 08:55:05;;;;;;;;;;;20.40;35.20;;;;;;490685;240;1120;-77
2020/12/07 08:57:07;;;;;;;;;;;20.40;35.30;;;;;;490942;240;1249;-77
2020/12/07 08:59:08;;;;;;;;;;;20.40;35.30;;;;;;490837;240;1262;-78
2020/12/07 09:01:09;;;;;;;;;;;20.40;35.30;;;;;;490667;240;1228;-78
2020/12/07 09:03:10;;;;;;;;;;;20.40;35.30;;;;;;490763;240;1075;-78
2020/12/07 09:05:12;;;;;;;;;;;20.40;35.30;;;;;;490776;240;1099;-77
2020/12/07 09:07:13;;;;;;;;;;;20.40;35.40;;;;;;490736;240;2167;-77
2020/12/07 09:09:14;;;;;;;;;;;20.40;35.40;;;;;;490892;240;975;-78
2020/12/07 09:11:16;;;;;;;;;;;20.40;35.30;;;;;;490825;240;1194;-77
2020/12/07 09:13:17;;;;;;;;;;;20.40;35.30;;;;;;490851;240;1179;-77
2020/12/07 09:15:18;;;;;;;;;;;20.50;35.30;;;;;;490818;240;1044;-77
2020/12/07 09:17:19;;;;;;;;;;;20.50;35.30;;;;;;490700;240;1316;-77
2020/12/07 09:19:21;;;;;;;;;;;20.40;35.30;;;;;;491249;240;1076;-77
2020/12/07 09:21:22;;;;;;;;;;;20.40;35.30;;;;;;490852;240;1049;-77
2020/12/07 09:23:24;;;;;;;;;;;20.50;35.10;;;;;;490744;240;1093;-77
2020/12/07 09:25:25;;;;;;;;;;;20.50;35.10;;;;;;490866;240;1996;-77
2020/12/07 09:27:26;;;;;;;;;;;20.50;35.20;;;;;;490885;240;2215;-77
2020/12/07 09:29:27;;;;;;;;;;;20.50;35.10;;;;;;490957;240;1071;-77
2020/12/07 09:31:29;;;;;;;;;;;20.40;35.10;;;;;;491032;240;1330;-78
2020/12/07 09:33:30;;;;;;;;;;;20.50;35.00;;;;;;490870;240;1333;-78
2020/12/07 09:35:31;;;;;;;;;;;20.50;35.00;;;;;;490912;240;1114;-78
2020/12/07 09:37:33;;;;;;;;;;;20.50;34.90;;;;;;490868;240;1097;-77
2020/12/07 09:39:34;;;;;;;;;;;20.50;35.10;;;;;;490817;240;1151;-78
2020/12/07 09:41:36;;;;;;;;;;;20.50;35.10;;;;;;490786;240;1199;-78
2020/12/07 09:43:37;;;;;;;;;;;20.50;35.20;;;;;;490522;240;2204;-78
2020/12/07 09:45:38;;;;;;;;;;;20.50;35.10;;;;;;490783;240;1397;-78
2020/12/07 09:47:40;;;;;;;;;;;20.60;35.20;;;;;;491022;240;2188;-78
2020/12/07 09:49:41;;;;;;;;;;;20.60;35.00;;;;;;490859;240;1034;-78
2020/12/07 09:51:42;;;;;;;;;;;20.60;35.10;;;;;;490815;240;1081;-77
2020/12/07 09:53:43;;;;;;;;;;;20.60;35.20;;;;;;490932;240;1065;-78
2020/12/07 09:55:46;;;;;;;;;;;20.60;35.10;;;;;;490770;240;1102;-78
2020/12/07 09:57:46;;;;;;;;;;;20.60;35.10;;;;;;490848;240;2111;-78
2020/12/07 09:59:49;;;;;;;;;;;20.60;35.20;;;;;;490810;240;1162;-77
2020/12/07 10:01:48;;;;;;;;;;;20.70;35.30;;;;;;490802;240;2215;-77
2020/12/07 10:03:50;;;;;;;;;;;20.60;35.20;;;;;;490904;240;1091;-78
2020/12/07 10:05:51;;;;;;;;;;;20.70;35.20;;;;;;490935;240;2175;-78
2020/12/07 10:07:52;;;;;;;;;;;20.70;35.10;;;;;;490999;240;1037;-78
2020/12/07 10:09:54;;;;;;;;;;;20.60;35.10;;;;;;490983;240;1198;-78
2020/12/07 10:11:55;;;;;;;;;;;20.60;35.10;;;;;;491028;240;1079;-78
2020/12/07 10:13:56;;;;;;;;;;;20.50;35.30;;;;;;491006;240;996;-77
2020/12/07 10:15:57;;;;;;;;;;;20.50;35.30;;;;;;490953;240;1039;-78
2020/12/07 10:17:59;;;;;;;;;;;20.40;35.10;;;;;;490971;240;1207;-77
2020/12/07 10:20:00;;;;;;;;;;;20.30;35.30;;;;;;490876;240;1063;-77
2020/12/07 10:22:01;;;;;;;;;;;20.30;35.40;;;;;;490982;240;1138;-78
2020/12/07 10:24:03;;;;;;;;;;;20.30;35.40;;;;;;490993;240;1123;-77
2020/12/07 10:26:04;;;;;;;;;;;20.20;35.50;;;;;;490856;240;2192;-77
2020/12/07 10:28:05;;;;;;;;;;;20.20;35.50;;;;;;490894;240;1111;-78
2020/12/07 10:30:07;;;;;;;;;;;20.10;35.50;;;;;;490906;240;1041;-77
2020/12/07 10:32:08;;;;;;;;;;;20.10;35.60;;;;;;490594;240;1227;-78
2020/12/07 10:34:09;;;;;;;;;;;20.10;35.50;;;;;;490605;240;1079;-77
2020/12/07 10:36:10;;;;;;;;;;;20.10;35.50;;;;;;490792;240;1050;-77
2020/12/07 10:38:12;;;;;;;;;;;20.10;35.50;;;;;;490817;240;1242;-78
2020/12/07 10:40:14;;;;;;;;;;;20.20;35.40;;;;;;490792;240;1110;-77
2020/12/07 10:42:15;;;;;;;;;;;20.20;35.20;;;;;;490900;240;990;-77
2020/12/07 10:44:16;;;;;;;;;;;20.20;35.10;;;;;;490865;240;1022;-77
2020/12/07 10:46:18;;;;;;;;;;;20.30;35.00;;;;;;490865;240;2191;-77
2020/12/07 10:48:19;;;;;;;;;;;20.30;34.90;;;;;;490810;240;1311;-78
2020/12/07 10:50:20;;;;;;;;;;;20.40;34.90;;;;;;490959;240;1039;-77
2020/12/07 10:52:21;;;;;;;;;;;20.40;34.70;;;;;;490742;240;1108;-77
2020/12/07 10:54:23;;;;;;;;;;;20.40;34.60;;;;;;490734;240;1022;-77
2020/12/07 10:56:24;;;;;;;;;;;20.40;34.60;;;;;;490797;240;1034;-77
2020/12/07 10:58:25;;;;;;;;;;;20.40;34.60;;;;;;490761;240;1292;-77
2020/12/07 11:00:27;;;;;;;;;;;20.40;34.60;;;;;;490829;240;2383;-77
2020/12/07 11:02:28;;;;;;;;;;;20.40;34.50;;;;;;490796;240;1244;-77
2020/12/07 11:04:29;;;;;;;;;;;20.40;34.40;;;;;;490757;240;1111;-77
2020/12/07 11:06:33;;;;;;;;;;;20.40;34.40;;;;;;490757;240;2184;-77
2020/12/07 11:08:34;;;;;;;;;;;20.40;34.40;;;;;;491034;240;2171;-77
2020/12/07 11:10:33;;;;;;;;;;;20.40;34.40;;;;;;490898;240;2219;-77
2020/12/07 11:12:37;;;;;;;;;;;20.40;34.50;;;;;;490728;240;1201;-77
2020/12/07 11:14:36;;;;;;;;;;;20.40;35.00;;;;;;490748;242;2132;-78
2020/12/07 11:16:37;;;;;;;;;;;20.40;35.10;;;;;;490850;240;1249;-77
2020/12/07 11:18:38;;;;;;;;;;;20.40;35.20;;;;;;490918;240;1132;-79
2020/12/07 11:20:40;;;;;;;;;;;20.40;35.40;;;;;;490943;240;1105;-78
2020/12/07 11:22:41;;;;;;;;;;;20.40;35.50;;;;;;490951;240;1173;-78
2020/12/07 11:24:42;;;;;;;;;;;20.40;35.50;;;;;;490917;240;1138;-77
2020/12/07 11:26:43;;;;;;;;;;;20.40;35.50;;;;;;490976;240;2176;-78
2020/12/07 11:28:45;;;;;;;;;;;20.40;35.60;;;;;;490922;240;1304;-78
2020/12/07 11:30:46;;;;;;;;;;;20.40;35.60;;;;;;491037;240;1226;-78
2020/12/07 11:32:47;;;;;;;;;;;20.40;35.60;;;;;;491010;240;1169;-77
2020/12/07 11:34:49;;;;;;;;;;;20.40;35.70;;;;;;490988;240;1185;-77
2020/12/07 11:36:50;;;;;;;;;;;20.40;35.80;;;;;;490954;240;1069;-78
2020/12/07 11:38:58;;;;;;;;;;;20.40;35.90;;;;;;490901;240;997;-78
2020/12/07 11:41:11;;;;;;;;;;;20.40;35.90;;;;;;490950;240;2113;-78
2020/12/07 11:43:13;;;;;;;;;;;20.40;35.80;;;;;;490865;240;2069;-77
2020/12/07 11:45:05;;;;;;;;;;;20.40;35.80;;;;;;490847;240;2239;-77
2020/12/07 11:47:09;;;;;;;;;;;20.50;35.80;;;;;;490717;241;2192;-78
2020/12/07 11:49:08;;;;;;;;;;;20.40;35.80;;;;;;490938;240;2281;-78
2020/12/07 11:51:09;;;;;;;;;;;20.50;35.80;;;;;;490871;240;1147;-78
2020/12/07 11:53:10;;;;;;;;;;;20.50;35.80;;;;;;490793;240;1199;-77
2020/12/07 11:55:11;;;;;;;;;;;20.40;35.70;;;;;;490807;240;1151;-77
2020/12/07 11:57:13;;;;;;;;;;;20.50;35.70;;;;;;491061;240;1183;-78
2020/12/07 11:59:15;;;;;;;;;;;20.60;35.50;;;;;;490748;240;982;-78
2020/12/07 12:01:15;;;;;;;;;;;20.60;35.50;;;;;;490715;240;1352;-78
2020/12/07 12:03:17;;;;;;;;;;;20.50;35.50;;;;;;490788;240;1193;-78
2020/12/07 12:05:18;;;;;;;;;;;20.50;35.50;;;;;;490769;240;1116;-77
2020/12/07 12:07:19;;;;;;;;;;;20.80;35.00;;;;;;490632;240;2199;-78
2020/12/07 12:09:21;;;;;;;;;;;20.90;34.90;;;;;;490642;240;1203;-77
2020/12/07 12:11:22;;;;;;;;;;;20.70;35.00;;;;;;491056;240;1157;-77
2020/12/07 12:13:23;;;;;;;;;;;20.60;35.10;;;;;;490838;240;1084;-77
2020/12/07 12:15:24;;;;;;;;;;;20.40;35.10;;;;;;490878;240;1028;-77